Time;durP1;ratioP1;P1;durP2;ratioP2;P2;SDS_P1;SDS_P2;PMS_P1;PMS_P2;Temp;Humidity;BMP_temperature;BMP_pressure;BME280_temperature;BME280_humidity;BME280_pressure;Samples;Min_cycle;Max_cycle;Signal;HPM_P1;HPM_P2
2021/09/19 00:00:12;;;;;;;18.43;14.30;;;17.50;73.40;;;;;;4957930;28;20428;-93
2021/09/19 00:02:38;;;;;;;19.20;14.02;;;17.50;73.30;;;;;;4958967;28;20551;-92
2021/09/19 00:05:06;;;;;;;17.60;13.90;;;17.60;73.40;;;;;;4959490;29;20652;-92
2021/09/19 00:07:32;;;;;;;21.55;16.23;;;17.60;73.40;;;;;;4959049;29;20799;-93
2021/09/19 00:09:57;;;;;;;17.40;13.60;;;17.70;73.20;;;;;;4959060;29;20188;-93
2021/09/19 00:12:23;;;;;;;17.27;14.20;;;17.70;73.20;;;;;;4959885;28;20286;-93
2021/09/19 00:14:49;;;;;;;20.20;14.03;;;17.70;72.80;;;;;;4958552;29;20184;-93
2021/09/19 00:17:17;;;;;;;17.17;13.95;;;17.60;72.60;;;;;;4958558;29;20904;-93
2021/09/19 00:19:44;;;;;;;19.10;14.57;;;17.60;72.50;;;;;;4958950;29;20188;-92
2021/09/19 00:22:10;;;;;;;15.25;12.95;;;17.70;72.70;;;;;;4957666;28;20195;-92
2021/09/19 00:24:35;;;;;;;17.87;13.20;;;17.70;72.50;;;;;;4960032;28;20181;-92
2021/09/19 00:27:03;;;;;;;15.60;12.37;;;17.70;72.30;;;;;;4958416;29;20776;-92
2021/09/19 00:29:30;;;;;;;17.30;13.07;;;17.70;72.40;;;;;;4959017;29;20192;-92
2021/09/19 00:31:57;;;;;;;19.92;14.65;;;17.60;72.20;;;;;;4963175;28;20202;-92
2021/09/19 00:34:22;;;;;;;20.05;14.05;;;17.60;72.10;;;;;;4960941;28;20219;-92
2021/09/19 00:36:48;;;;;;;16.50;13.53;;;17.60;72.30;;;;;;4959978;28;20551;-91
2021/09/19 00:39:14;;;;;;;19.02;12.98;;;17.60;72.50;;;;;;4960407;28;20204;-91
2021/09/19 00:41:40;;;;;;;20.10;13.70;;;17.60;72.50;;;;;;4959479;28;20192;-90
2021/09/19 00:44:09;;;;;;;14.27;12.77;;;17.40;73.10;;;;;;4960874;28;20219;-91
2021/09/19 00:46:37;;;;;;;16.95;13.32;;;17.40;73.40;;;;;;4960444;28;20173;-91
2021/09/19 00:49:04;;;;;;;18.67;13.18;;;17.40;73.10;;;;;;4959160;28;20594;-91
2021/09/19 00:51:31;;;;;;;21.73;12.95;;;17.40;73.00;;;;;;4957858;28;20523;-93
2021/09/19 00:53:57;;;;;;;14.13;12.52;;;17.50;72.90;;;;;;4957734;28;20307;-93
2021/09/19 00:56:28;;;;;;;16.13;14.50;;;17.40;73.00;;;;;;4957916;28;20211;-93
2021/09/19 00:58:57;;;;;;;18.90;13.57;;;17.30;72.90;;;;;;4957902;28;20491;-93
2021/09/19 01:01:23;;;;;;;19.20;13.30;;;17.30;73.00;;;;;;4957591;28;20211;-92
2021/09/19 01:03:49;;;;;;;19.65;13.07;;;17.30;73.10;;;;;;4942030;29;20272;-92
2021/09/19 01:06:16;;;;;;;18.25;13.52;;;17.20;73.30;;;;;;4957732;28;20500;-94
2021/09/19 01:08:45;;;;;;;16.70;12.95;;;17.20;73.60;;;;;;4957541;28;20249;-92
2021/09/19 01:11:13;;;;;;;17.50;12.77;;;17.20;73.40;;;;;;4956330;28;20196;-92
2021/09/19 01:13:43;;;;;;;19.45;14.13;;;17.30;73.60;;;;;;4959342;28;20208;-92
2021/09/19 01:16:11;;;;;;;18.08;12.23;;;17.30;73.20;;;;;;4962731;28;20176;-92
2021/09/19 01:18:38;;;;;;;15.38;11.95;;;17.30;73.20;;;;;;4959072;28;20299;-92
2021/09/19 01:21:04;;;;;;;18.85;14.32;;;17.30;73.40;;;;;;4958500;28;20192;-92
2021/09/19 01:23:31;;;;;;;23.05;16.60;;;17.20;73.40;;;;;;4975765;28;20208;-92
2021/09/19 01:25:59;;;;;;;16.20;12.77;;;17.20;73.80;;;;;;4979565;28;20204;-91
2021/09/19 01:28:26;;;;;;;15.43;13.27;;;17.10;73.70;;;;;;4979265;28;20244;-92
2021/09/19 01:30:51;;;;;;;17.45;13.50;;;17.20;73.50;;;;;;4979903;28;20192;-94
2021/09/19 01:33:17;;;;;;;16.77;13.07;;;17.20;73.40;;;;;;4979473;28;20219;-92
2021/09/19 01:35:43;;;;;;;16.67;14.40;;;17.10;73.40;;;;;;4969637;28;20185;-93
2021/09/19 01:38:09;;;;;;;19.53;15.43;;;17.20;73.80;;;;;;4960316;28;20212;-92
2021/09/19 01:40:34;;;;;;;21.60;13.83;;;17.20;73.40;;;;;;4957780;28;20180;-92
2021/09/19 01:43:01;;;;;;;18.77;13.37;;;17.10;74.20;;;;;;4958243;28;20247;-92
2021/09/19 01:45:30;;;;;;;19.15;12.43;;;17.10;74.20;;;;;;4958827;28;20263;-92
2021/09/19 01:47:56;;;;;;;16.55;14.02;;;17.00;74.60;;;;;;4956480;28;20648;-92
2021/09/19 01:50:24;;;;;;;21.55;14.80;;;17.10;74.30;;;;;;4957390;28;20184;-92
2021/09/19 01:52:51;;;;;;;19.20;13.82;;;17.10;74.60;;;;;;4956797;28;20205;-92
2021/09/19 01:55:17;;;;;;;18.27;14.73;;;17.10;74.10;;;;;;4956331;28;20184;-92
2021/09/19 01:57:43;;;;;;;15.65;13.20;;;17.00;73.80;;;;;;4956721;28;20501;-92
2021/09/19 02:00:10;;;;;;;17.33;13.53;;;17.00;74.10;;;;;;4957400;28;20195;-93
2021/09/19 02:02:36;;;;;;;17.25;13.80;;;16.90;74.60;;;;;;4960605;28;21007;-92
2021/09/19 02:05:05;;;;;;;17.95;12.95;;;16.90;75.00;;;;;;4960534;28;20201;-92
2021/09/19 02:07:33;;;;;;;15.98;13.05;;;17.00;74.10;;;;;;4959910;28;20212;-92
2021/09/19 02:09:59;;;;;;;22.58;14.20;;;17.00;74.00;;;;;;4959637;28;20189;-92
2021/09/19 02:12:25;;;;;;;19.60;15.33;;;16.90;75.30;;;;;;4960576;28;20200;-92
2021/09/19 02:14:50;;;;;;;19.00;14.37;;;16.90;75.00;;;;;;4958500;28;20446;-91
2021/09/19 02:17:16;;;;;;;19.97;13.47;;;16.80;75.30;;;;;;4960838;28;20424;-92
2021/09/19 02:19:42;;;;;;;15.23;12.90;;;16.80;75.50;;;;;;4961941;28;20184;-91
2021/09/19 02:22:12;;;;;;;19.43;13.50;;;16.80;75.20;;;;;;4960664;28;20276;-92
2021/09/19 02:24:39;;;;;;;22.23;14.40;;;16.80;75.10;;;;;;4958043;28;20567;-92
2021/09/19 02:27:06;;;;;;;15.88;13.55;;;16.90;74.40;;;;;;4956648;28;20184;-92
2021/09/19 02:29:31;;;;;;;19.15;14.05;;;16.80;74.10;;;;;;4955996;28;20192;-92
2021/09/19 02:31:57;;;;;;;19.73;14.60;;;16.90;74.20;;;;;;4955348;28;20200;-92
2021/09/19 02:34:23;;;;;;;16.17;12.77;;;16.80;74.20;;;;;;4957935;28;20275;-92
2021/09/19 02:36:49;;;;;;;15.90;14.20;;;16.70;75.10;;;;;;4959357;28;20284;-92
2021/09/19 02:39:14;;;;;;;16.83;13.73;;;16.70;75.00;;;;;;4957836;28;20212;-92
2021/09/19 02:41:40;;;;;;;17.70;13.40;;;16.70;74.70;;;;;;4956906;28;20552;-92
2021/09/19 02:44:07;;;;;;;21.00;15.33;;;16.70;74.60;;;;;;4957119;28;20246;-92
2021/09/19 02:46:33;;;;;;;17.13;14.32;;;16.70;75.00;;;;;;4956511;28;20579;-92
2021/09/19 02:48:59;;;;;;;19.67;15.50;;;16.60;75.20;;;;;;4956037;28;20690;-92
2021/09/19 02:51:25;;;;;;;19.60;14.93;;;16.60;75.40;;;;;;4955421;28;20180;-92
2021/09/19 02:53:50;;;;;;;22.37;14.37;;;16.60;75.20;;;;;;4957519;28;20234;-92
2021/09/19 02:56:16;;;;;;;18.27;14.77;;;16.50;75.40;;;;;;4955523;28;20924;-91
2021/09/19 02:58:42;;;;;;;16.67;14.37;;;16.50;75.70;;;;;;4955570;28;20223;-91
2021/09/19 03:01:08;;;;;;;17.30;14.53;;;16.50;76.00;;;;;;4955686;28;20473;-91
2021/09/19 03:03:34;;;;;;;18.53;14.20;;;16.60;75.70;;;;;;4955201;28;20208;-91
2021/09/19 03:05:59;;;;;;;17.23;14.80;;;16.50;75.40;;;;;;4956032;29;20185;-91
2021/09/19 03:08:25;;;;;;;15.87;14.17;;;16.50;75.60;;;;;;4955964;28;20195;-91
2021/09/19 03:10:51;;;;;;;16.90;13.67;;;16.60;75.40;;;;;;4955522;28;20180;-91
2021/09/19 03:13:17;;;;;;;27.83;13.67;;;16.60;74.90;;;;;;4954905;28;20207;-91
2021/09/19 03:15:43;;;;;;;20.20;14.90;;;16.50;75.10;;;;;;4955342;28;20644;-91
2021/09/19 03:18:09;;;;;;;18.85;14.88;;;16.60;75.10;;;;;;4956816;28;20200;-91
2021/09/19 03:20:35;;;;;;;18.33;15.52;;;16.50;75.10;;;;;;4955654;28;20184;-93
2021/09/19 03:23:00;;;;;;;26.13;15.07;;;16.40;75.30;;;;;;4938703;29;20224;-93
2021/09/19 03:25:26;;;;;;;18.80;15.20;;;16.40;75.50;;;;;;4955317;28;20621;-92
2021/09/19 03:27:52;;;;;;;22.07;16.00;;;16.40;75.80;;;;;;4954879;28;20188;-92
2021/09/19 03:30:18;;;;;;;17.42;15.63;;;16.40;75.80;;;;;;4954872;28;20184;-92
2021/09/19 03:32:45;;;;;;;22.38;17.83;;;16.40;75.80;;;;;;4954485;28;20239;-92
2021/09/19 03:35:12;;;;;;;20.55;15.00;;;16.30;75.70;;;;;;4957901;28;20587;-92
2021/09/19 03:37:39;;;;;;;27.08;15.05;;;16.40;75.70;;;;;;4959060;28;20298;-92
2021/09/19 03:40:09;;;;;;;22.40;16.20;;;16.30;76.00;;;;;;4959130;28;20178;-92
2021/09/19 03:42:35;;;;;;;22.65;17.48;;;16.30;76.40;;;;;;4959098;28;20200;-92
2021/09/19 03:45:01;;;;;;;21.07;17.37;;;16.20;76.50;;;;;;4959033;28;20300;-93
2021/09/19 03:47:27;;;;;;;23.38;17.75;;;16.20;76.20;;;;;;4959106;28;20684;-92
2021/09/19 03:49:52;;;;;;;23.63;16.30;;;16.30;76.30;;;;;;4958893;28;20231;-92
2021/09/19 03:52:18;;;;;;;26.17;16.70;;;16.10;76.30;;;;;;4958172;28;20927;-91
2021/09/19 03:54:44;;;;;;;21.33;17.10;;;16.20;76.30;;;;;;4960527;28;20180;-91
2021/09/19 03:57:09;;;;;;;19.90;17.70;;;16.20;76.40;;;;;;4958947;28;20420;-91
2021/09/19 03:59:35;;;;;;;29.60;18.80;;;16.10;76.70;;;;;;4958889;28;20549;-91
2021/09/19 04:02:01;;;;;;;27.13;19.00;;;16.00;76.70;;;;;;4958972;28;20184;-92
2021/09/19 04:04:27;;;;;;;26.93;18.20;;;16.10;76.80;;;;;;4958987;28;20660;-93
2021/09/19 04:06:52;;;;;;;23.20;16.30;;;16.00;76.80;;;;;;4959153;28;20631;-93
2021/09/19 04:09:18;;;;;;;20.83;17.40;;;15.90;77.10;;;;;;4958627;28;20562;-92
2021/09/19 04:11:44;;;;;;;23.77;18.83;;;16.00;77.20;;;;;;4958515;28;20424;-93
2021/09/19 04:14:10;;;;;;;20.43;16.73;;;15.90;77.10;;;;;;4958953;28;20207;-93
2021/09/19 04:16:35;;;;;;;21.47;17.37;;;15.90;77.10;;;;;;4960061;28;20420;-92
2021/09/19 04:19:01;;;;;;;20.40;17.70;;;15.90;77.20;;;;;;4960063;28;20212;-91
2021/09/19 04:21:32;;;;;;;23.35;17.13;;;15.80;77.70;;;;;;4958309;28;20668;-92
2021/09/19 04:23:58;;;;;;;27.48;19.63;;;15.80;78.00;;;;;;4958820;28;20262;-92
2021/09/19 04:26:23;;;;;;;26.33;18.10;;;15.90;77.70;;;;;;4958577;28;20562;-92
2021/09/19 04:28:52;;;;;;;20.20;17.07;;;15.90;77.50;;;;;;4959006;28;20294;-92
2021/09/19 04:31:17;;;;;;;22.10;17.10;;;15.80;77.40;;;;;;4958234;28;20510;-93
2021/09/19 04:33:43;;;;;;;23.33;17.23;;;15.90;77.40;;;;;;4958777;28;20643;-93
2021/09/19 04:36:09;;;;;;;24.60;17.87;;;15.90;77.20;;;;;;4958807;28;20427;-93
2021/09/19 04:38:34;;;;;;;22.77;18.37;;;15.90;77.20;;;;;;4958456;29;20303;-93
2021/09/19 04:41:00;;;;;;;26.60;18.33;;;15.90;77.30;;;;;;4958725;29;20204;-93
2021/09/19 04:43:26;;;;;;;23.23;18.73;;;15.90;77.40;;;;;;4958517;28;20224;-93
2021/09/19 04:45:51;;;;;;;24.40;18.27;;;15.90;77.60;;;;;;4958457;28;20267;-93
2021/09/19 04:48:19;;;;;;;22.57;18.10;;;15.90;77.30;;;;;;4958472;29;20648;-92
2021/09/19 04:50:45;;;;;;;19.85;17.02;;;15.90;77.10;;;;;;4957946;29;20192;-93
2021/09/19 04:53:11;;;;;;;20.65;17.33;;;15.90;76.90;;;;;;4957927;28;20263;-92
2021/09/19 04:55:43;;;;;;;23.33;17.20;;;15.80;77.30;;;;;;4958082;29;20271;-93
2021/09/19 04:58:08;;;;;;;23.02;17.17;;;15.80;77.50;;;;;;4958689;29;20905;-93
2021/09/19 05:00:34;;;;;;;20.30;16.80;;;15.70;77.50;;;;;;4958462;29;20177;-92
2021/09/19 05:03:00;;;;;;;21.67;16.10;;;15.60;77.70;;;;;;4960129;28;20223;-92
2021/09/19 05:05:26;;;;;;;22.03;18.20;;;15.60;78.00;;;;;;4958940;29;20228;-92
2021/09/19 05:07:51;;;;;;;22.40;17.53;;;15.70;78.20;;;;;;4959173;29;20189;-92
2021/09/19 05:10:17;;;;;;;21.73;18.67;;;15.60;78.10;;;;;;4959367;29;20180;-92
2021/09/19 05:12:43;;;;;;;28.03;18.10;;;15.60;78.50;;;;;;4959352;28;20264;-92
2021/09/19 05:15:09;;;;;;;22.13;16.57;;;15.60;78.30;;;;;;4964952;28;20208;-92
2021/09/19 05:17:34;;;;;;;20.30;16.60;;;15.70;78.40;;;;;;4961364;29;20196;-92
2021/09/19 05:20:00;;;;;;;26.30;19.30;;;15.60;78.40;;;;;;4962015;29;20562;-92
2021/09/19 05:22:26;;;;;;;22.00;17.73;;;15.60;78.50;;;;;;4963357;28;20211;-92
2021/09/19 05:24:54;;;;;;;20.80;17.33;;;15.60;78.50;;;;;;4962101;29;20500;-92
2021/09/19 05:27:19;;;;;;;24.90;19.15;;;15.70;78.20;;;;;;4961620;29;20228;-93
2021/09/19 05:29:45;;;;;;;21.87;17.73;;;15.70;77.90;;;;;;4962737;29;20185;-92
2021/09/19 05:32:11;;;;;;;26.27;16.83;;;15.80;77.70;;;;;;4961991;28;20267;-92
2021/09/19 05:34:36;;;;;;;22.93;15.93;;;15.80;77.50;;;;;;4964121;28;20263;-92
2021/09/19 05:37:02;;;;;;;24.97;17.30;;;15.80;77.30;;;;;;4964438;28;20195;-93
2021/09/19 05:39:28;;;;;;;25.73;16.67;;;15.80;77.60;;;;;;4965003;28;20215;-93
2021/09/19 05:41:54;;;;;;;20.93;17.40;;;15.80;77.50;;;;;;4963099;28;20184;-92
2021/09/19 05:44:19;;;;;;;20.23;16.17;;;15.80;77.80;;;;;;4962640;28;20200;-92
2021/09/19 05:46:45;;;;;;;21.60;16.60;;;15.90;77.60;;;;;;4962095;28;20187;-92
2021/09/19 05:49:12;;;;;;;19.92;16.17;;;15.90;77.30;;;;;;4962777;28;20188;-92
2021/09/19 05:51:38;;;;;;;20.85;15.93;;;16.10;77.00;;;;;;4964989;28;20196;-93
2021/09/19 05:54:04;;;;;;;20.10;16.23;;;16.10;76.50;;;;;;4962253;28;20568;-92
2021/09/19 05:56:29;;;;;;;15.57;13.97;;;16.20;76.50;;;;;;4961909;28;20266;-92
2021/09/19 05:58:56;;;;;;;14.87;13.33;;;16.30;75.90;;;;;;4961174;28;20205;-92
2021/09/19 06:01:22;;;;;;;20.65;14.40;;;16.40;75.60;;;;;;4963657;28;20188;-92
2021/09/19 06:03:48;;;;;;;16.45;13.50;;;16.50;75.30;;;;;;4963448;28;20216;-92
2021/09/19 06:06:14;;;;;;;17.00;14.10;;;16.60;74.70;;;;;;4964296;28;20185;-92
2021/09/19 06:08:39;;;;;;;19.87;14.90;;;16.70;74.40;;;;;;4963168;28;20177;-92
2021/09/19 06:11:05;;;;;;;17.13;13.40;;;16.70;74.00;;;;;;4967831;28;20466;-92
2021/09/19 06:13:31;;;;;;;17.03;14.03;;;16.80;73.50;;;;;;4958530;28;20217;-92
2021/09/19 06:15:57;;;;;;;14.85;12.38;;;16.70;73.40;;;;;;4941542;29;20185;-93
2021/09/19 06:18:23;;;;;;;16.50;12.30;;;16.80;73.50;;;;;;4957468;28;20212;-92
2021/09/19 06:20:49;;;;;;;16.27;13.20;;;16.90;73.50;;;;;;4957544;28;20420;-92
2021/09/19 06:23:15;;;;;;;15.87;13.83;;;17.00;73.10;;;;;;4957221;28;20452;-92
2021/09/19 06:25:41;;;;;;;16.00;12.93;;;17.00;72.60;;;;;;4957968;28;20428;-92
2021/09/19 06:28:07;;;;;;;16.30;13.27;;;17.10;72.60;;;;;;4957964;28;20424;-92
2021/09/19 06:30:33;;;;;;;17.13;13.60;;;16.90;72.40;;;;;;4958403;28;20432;-92
2021/09/19 06:32:59;;;;;;;16.30;12.87;;;16.90;72.80;;;;;;4960838;28;20208;-92
2021/09/19 06:35:25;;;;;;;19.67;12.27;;;16.80;72.80;;;;;;4960330;28;20479;-92
2021/09/19 06:37:50;;;;;;;16.63;13.93;;;16.80;73.20;;;;;;4958606;28;20240;-93
2021/09/19 06:40:16;;;;;;;16.57;14.07;;;16.90;73.30;;;;;;4959495;28;20212;-92
2021/09/19 06:42:43;;;;;;;19.03;14.07;;;16.90;72.80;;;;;;4960060;28;20703;-92
2021/09/19 06:45:09;;;;;;;15.25;13.10;;;16.90;72.70;;;;;;4967772;28;20420;-92
2021/09/19 06:47:35;;;;;;;18.58;13.65;;;16.70;73.20;;;;;;4977037;28;20188;-92
2021/09/19 06:50:00;;;;;;;19.40;15.70;;;16.70;73.50;;;;;;4977753;28;20183;-92
2021/09/19 06:52:26;;;;;;;19.70;14.77;;;16.60;74.00;;;;;;4969996;28;20252;-93
2021/09/19 06:54:52;;;;;;;18.23;15.20;;;16.70;74.00;;;;;;4973435;28;20176;-92
2021/09/19 06:57:18;;;;;;;16.83;13.27;;;16.70;74.00;;;;;;4956973;28;20172;-93
2021/09/19 06:59:43;;;;;;;15.40;13.77;;;16.90;73.90;;;;;;4978406;28;20478;-93
2021/09/19 07:02:09;;;;;;;17.10;15.30;;;16.90;73.50;;;;;;4978192;28;20216;-92
2021/09/19 07:04:38;;;;;;;18.53;13.70;;;16.90;73.30;;;;;;4978075;28;20219;-93
2021/09/19 07:07:04;;;;;;;17.23;13.75;;;17.00;73.20;;;;;;4961498;29;20192;-92
2021/09/19 07:09:29;;;;;;;19.93;14.80;;;16.90;73.30;;;;;;4977462;28;20213;-92
2021/09/19 07:11:55;;;;;;;17.27;14.27;;;16.80;73.20;;;;;;4977594;28;20188;-92
2021/09/19 07:14:21;;;;;;;17.60;14.23;;;17.00;73.40;;;;;;4976969;28;20188;-92
2021/09/19 07:16:46;;;;;;;18.77;15.13;;;16.90;73.70;;;;;;4977323;29;20176;-93
2021/09/19 07:19:12;;;;;;;17.33;14.50;;;17.00;73.30;;;;;;4975894;28;20224;-92
2021/09/19 07:21:38;;;;;;;17.33;13.13;;;17.10;73.30;;;;;;4970510;29;20184;-93
2021/09/19 07:24:04;;;;;;;18.87;14.10;;;17.20;73.00;;;;;;4968890;28;20207;-91
2021/09/19 07:26:29;;;;;;;17.70;14.70;;;17.30;73.00;;;;;;4967973;29;20604;-93
2021/09/19 07:28:55;;;;;;;20.73;15.20;;;17.20;73.00;;;;;;4967154;28;20207;-92
2021/09/19 07:31:21;;;;;;;19.92;14.52;;;17.40;72.60;;;;;;4966868;29;20187;-92
2021/09/19 07:33:47;;;;;;;18.60;14.35;;;17.50;72.30;;;;;;4957819;29;20239;-93
2021/09/19 07:36:15;;;;;;;16.17;13.25;;;17.70;71.60;;;;;;4957478;29;20247;-92
2021/09/19 07:38:41;;;;;;;16.95;15.20;;;18.00;71.30;;;;;;4973489;29;20212;-93
2021/09/19 07:41:10;;;;;;;18.17;13.75;;;18.10;71.00;;;;;;4974866;29;20199;-93
2021/09/19 07:43:36;;;;;;;18.63;13.32;;;18.10;70.40;;;;;;4976280;28;20204;-93
2021/09/19 07:46:02;;;;;;;14.80;13.00;;;18.40;70.40;;;;;;4974376;28;20212;-94
2021/09/19 07:48:28;;;;;;;20.93;13.67;;;18.60;69.50;;;;;;4975548;29;20578;-92
2021/09/19 07:50:54;;;;;;;16.83;13.90;;;18.80;68.70;;;;;;4975318;28;20443;-91
2021/09/19 07:53:20;;;;;;;17.77;13.55;;;18.70;68.70;;;;;;4956955;29;20444;-93
2021/09/19 07:55:45;;;;;;;18.50;14.13;;;18.80;68.50;;;;;;4971526;29;20199;-91
2021/09/19 07:58:11;;;;;;;18.80;14.20;;;18.80;68.10;;;;;;4970080;29;20471;-91
2021/09/19 08:00:39;;;;;;;17.83;14.13;;;18.80;67.80;;;;;;4963427;29;20176;-91
2021/09/19 08:03:05;;;;;;;18.20;14.02;;;18.60;68.40;;;;;;4962234;28;20201;-93
2021/09/19 08:05:41;;;;;;;14.97;13.30;;;18.80;68.60;;;;;;4958742;29;20185;-93
2021/09/19 08:08:08;;;;;;;17.17;12.48;;;19.10;68.90;;;;;;4958688;28;20160;-92
2021/09/19 08:10:34;;;;;;;17.30;13.57;;;19.30;68.40;;;;;;4955938;29;20284;-91
2021/09/19 08:13:00;;;;;;;16.90;13.00;;;19.50;68.00;;;;;;4956104;28;20236;-93
2021/09/19 08:15:26;;;;;;;16.20;13.43;;;19.40;67.50;;;;;;4957561;29;20195;-94
2021/09/19 08:17:52;;;;;;;18.42;14.52;;;19.40;67.20;;;;;;4961455;29;20316;-94
2021/09/19 08:20:18;;;;;;;17.13;14.73;;;19.30;67.30;;;;;;4963254;28;20195;-92
2021/09/19 08:22:45;;;;;;;16.77;13.70;;;19.20;67.30;;;;;;4959233;28;20220;-92
2021/09/19 08:25:13;;;;;;;16.85;13.73;;;19.10;68.20;;;;;;4960761;29;20211;-91
2021/09/19 08:27:40;;;;;;;18.83;15.52;;;19.10;68.50;;;;;;4960523;28;20188;-91
2021/09/19 08:30:08;;;;;;;10.82;9.10;;;18.90;68.50;;;;;;4962383;28;20212;-93
2021/09/19 08:32:34;;;;;;;16.13;13.02;;;19.00;70.70;;;;;;4960907;28;20199;-92
2021/09/19 08:35:00;;;;;;;19.77;15.10;;;19.30;69.60;;;;;;4960444;28;20181;-91
2021/09/19 08:37:26;;;;;;;21.15;14.75;;;19.40;68.00;;;;;;4959832;29;20419;-92
2021/09/19 08:39:52;;;;;;;20.27;15.17;;;19.50;67.50;;;;;;4961125;29;20636;-94
2021/09/19 08:42:19;;;;;;;17.47;14.50;;;19.50;67.00;;;;;;4973408;28;20455;-95
2021/09/19 08:44:45;;;;;;;17.17;12.57;;;19.40;66.90;;;;;;4974510;28;20252;-95
2021/09/19 08:47:12;;;;;;;23.48;14.75;;;19.60;67.30;;;;;;4950060;29;20260;-93
2021/09/19 08:49:38;;;;;;;17.05;13.73;;;19.50;66.70;;;;;;4963802;29;20268;-94
2021/09/19 08:52:04;;;;;;;17.67;14.73;;;19.30;67.10;;;;;;4962443;28;20216;-94
2021/09/19 08:54:30;;;;;;;16.35;13.40;;;19.40;67.50;;;;;;4972440;28;20168;-93
2021/09/19 08:56:55;;;;;;;14.57;12.70;;;19.60;67.70;;;;;;4981065;28;20243;-94
2021/09/19 08:59:21;;;;;;;16.90;12.73;;;19.80;67.30;;;;;;4975581;28;20975;-94
2021/09/19 09:02:01;;;;;;;17.00;13.37;;;19.90;67.40;;;;;;4966237;29;20185;-95
2021/09/19 09:04:27;;;;;;;18.10;14.10;;;20.10;66.60;;;;;;4966173;29;20447;-94
2021/09/19 09:06:54;;;;;;;19.92;11.80;;;20.10;66.40;;;;;;4966762;29;20252;-94
2021/09/19 09:09:20;;;;;;;15.77;12.90;;;20.30;66.20;;;;;;4961925;29;20215;-93
2021/09/19 09:12:11;;;;;;;16.30;13.30;;;20.50;65.20;;;;;;4959059;29;20204;-93
2021/09/19 09:14:42;;;;;;;19.35;13.80;;;20.50;63.30;;;;;;4959445;28;20192;-93
2021/09/19 09:17:18;;;;;;;17.38;13.70;;;20.50;63.70;;;;;;4959717;29;20243;-94
2021/09/19 09:19:49;;;;;;;12.68;11.02;;;20.50;63.50;;;;;;4959209;29;20204;-93
2021/09/19 09:22:24;;;;;;;19.52;12.00;;;20.60;64.10;;;;;;4959390;28;20193;-94
2021/09/19 09:25:13;;;;;;;12.00;10.77;;;20.70;64.50;;;;;;4959743;29;20170;-92
2021/09/19 09:27:45;;;;;;;16.70;12.75;;;21.00;64.10;;;;;;4961316;29;20176;-93
2021/09/19 09:30:14;;;;;;;16.17;13.20;;;21.10;65.40;;;;;;4960791;28;20548;-93
2021/09/19 09:32:58;;;;;;;16.65;10.95;;;21.00;63.00;;;;;;4959246;28;20483;-92
2021/09/19 09:35:34;;;;;;;17.67;12.77;;;21.10;66.30;;;;;;4963740;28;20176;-94
2021/09/19 09:38:14;;;;;;;12.73;10.53;;;21.30;64.30;;;;;;4948115;29;20563;-92
2021/09/19 09:40:40;;;;;;;15.43;10.27;;;21.40;64.50;;;;;;4967743;28;20392;-94
2021/09/19 09:43:12;;;;;;;14.27;11.40;;;21.50;65.10;;;;;;4962003;28;20582;-93
2021/09/19 09:45:41;;;;;;;12.27;10.00;;;21.70;62.70;;;;;;4960303;29;20447;-92
2021/09/19 09:48:42;;;;;;;10.97;9.80;;;21.70;62.50;;;;;;4962995;28;20511;-92
2021/09/19 09:51:23;;;;;;;13.47;11.00;;;21.80;62.20;;;;;;4906368;29;20967;-92
2021/09/19 09:54:00;;;;;;;12.60;10.57;;;21.90;60.60;;;;;;4953670;28;20440;-93
2021/09/19 09:56:26;;;;;;;13.57;12.13;;;22.00;59.60;;;;;;4959727;29;20432;-94
2021/09/19 09:58:53;;;;;;;13.27;10.37;;;21.80;58.60;;;;;;4961546;29;20486;-93
2021/09/19 10:01:20;;;;;;;13.20;11.40;;;22.00;58.90;;;;;;4961585;29;20443;-93
2021/09/19 10:03:46;;;;;;;16.57;12.00;;;21.80;57.60;;;;;;4961396;28;20569;-94
2021/09/19 10:06:13;;;;;;;11.50;10.07;;;21.80;57.60;;;;;;4963579;28;20426;-93
2021/09/19 10:08:41;;;;;;;12.60;10.13;;;22.00;57.30;;;;;;4966094;29;20431;-94
2021/09/19 10:11:08;;;;;;;12.37;10.37;;;22.00;58.20;;;;;;4951371;29;20420;-93
2021/09/19 10:13:35;;;;;;;14.33;9.43;;;22.00;57.20;;;;;;4967659;28;20455;-93
2021/09/19 10:16:03;;;;;;;15.00;9.83;;;22.10;58.00;;;;;;4969488;28;20420;-93
2021/09/19 10:18:29;;;;;;;10.63;9.43;;;22.20;57.50;;;;;;4969865;28;20488;-93
2021/09/19 10:20:59;;;;;;;11.50;9.90;;;22.20;57.80;;;;;;4972765;28;20436;-93
2021/09/19 10:23:29;;;;;;;11.90;9.37;;;22.30;58.10;;;;;;4973149;28;20208;-93
2021/09/19 10:25:57;;;;;;;13.17;11.53;;;22.60;58.40;;;;;;4967831;28;20416;-93
2021/09/19 10:28:23;;;;;;;13.10;9.53;;;22.60;56.50;;;;;;4975887;28;20487;-92
2021/09/19 10:31:08;;;;;;;14.37;12.80;;;22.60;58.60;;;;;;4979021;28;20448;-93
2021/09/19 10:34:07;;;;;;;12.60;10.00;;;22.20;56.40;;;;;;4977562;28;20486;-94
2021/09/19 10:36:48;;;;;;;13.33;10.40;;;22.40;56.60;;;;;;4964484;28;20427;-92
2021/09/19 10:39:35;;;;;;;15.00;10.77;;;22.40;56.20;;;;;;4960270;29;20472;-92
2021/09/19 10:42:15;;;;;;;11.27;10.10;;;22.50;56.40;;;;;;4964259;28;20571;-91
2021/09/19 10:44:44;;;;;;;12.93;10.13;;;22.70;55.70;;;;;;4961339;29;20470;-91
2021/09/19 10:47:11;;;;;;;9.67;8.60;;;22.80;56.10;;;;;;4977486;28;20416;-92
2021/09/19 10:49:40;;;;;;;9.50;8.30;;;22.70;55.50;;;;;;4961182;28;20447;-94
2021/09/19 10:52:10;;;;;;;11.23;8.47;;;22.90;55.30;;;;;;4945705;29;20519;-93
2021/09/19 10:54:42;;;;;;;11.43;8.23;;;22.80;54.80;;;;;;4960597;28;20424;-93
2021/09/19 10:57:14;;;;;;;12.37;8.23;;;22.90;54.30;;;;;;4961364;28;20424;-94
2021/09/19 11:00:08;;;;;;;11.63;9.20;;;22.90;54.40;;;;;;4961348;29;20982;-93
2021/09/19 11:02:36;;;;;;;9.27;8.30;;;22.50;54.00;;;;;;4960730;28;20550;-93
2021/09/19 11:05:20;;;;;;;12.40;8.57;;;22.80;54.40;;;;;;4961010;28;20435;-92
2021/09/19 11:07:46;;;;;;;10.60;9.07;;;22.80;54.40;;;;;;4965968;28;20444;-94
2021/09/19 11:10:15;;;;;;;10.23;8.53;;;22.80;53.90;;;;;;4944952;29;20420;-93
2021/09/19 11:12:43;;;;;;;9.83;8.83;;;22.80;53.60;;;;;;4958248;28;20440;-93
2021/09/19 11:15:14;;;;;;;10.83;9.30;;;23.00;53.50;;;;;;4961052;28;20448;-94
2021/09/19 11:17:45;;;;;;;13.13;6.50;;;23.00;53.70;;;;;;4963698;28;20428;-94
2021/09/19 11:20:14;;;;;;;6.63;6.00;;;22.90;55.70;;;;;;4960736;28;20434;-94
2021/09/19 11:22:41;;;;;;;10.13;7.73;;;22.90;55.50;;;;;;4959351;28;20464;-94
2021/09/19 11:25:07;;;;;;;10.37;7.93;;;22.80;54.30;;;;;;4959979;28;20416;-93
2021/09/19 11:27:44;;;;;;;11.93;6.70;;;22.90;53.50;;;;;;4958790;29;20438;-94
2021/09/19 11:30:11;;;;;;;9.03;8.23;;;22.80;57.20;;;;;;4960506;28;20424;-94
2021/09/19 11:32:38;;;;;;;9.97;8.77;;;23.00;54.70;;;;;;4959940;28;20447;-94
2021/09/19 11:35:08;;;;;;;12.97;9.13;;;22.90;55.00;;;;;;4962383;28;20438;-94
2021/09/19 11:37:35;;;;;;;9.13;7.93;;;23.00;54.60;;;;;;4960651;28;20412;-94
2021/09/19 11:40:01;;;;;;;11.03;7.93;;;23.10;54.20;;;;;;4960583;28;20433;-94
2021/09/19 11:42:28;;;;;;;9.77;8.97;;;23.30;54.10;;;;;;4960549;28;20462;-94
2021/09/19 11:44:59;;;;;;;9.47;7.87;;;23.20;53.30;;;;;;4961515;28;20537;-94
2021/09/19 11:47:25;;;;;;;11.20;7.70;;;23.40;53.60;;;;;;4960659;29;20424;-94
2021/09/19 11:49:53;;;;;;;13.20;8.03;;;23.40;53.50;;;;;;4960445;29;20420;-94
2021/09/19 11:52:21;;;;;;;10.20;9.13;;;23.40;53.40;;;;;;4959931;28;20427;-95
2021/09/19 11:54:47;;;;;;;10.53;6.80;;;23.20;53.60;;;;;;4960949;28;20471;-94
2021/09/19 11:57:14;;;;;;;11.00;8.80;;;23.30;53.90;;;;;;4963545;29;20531;-94
2021/09/19 11:59:44;;;;;;;8.20;7.40;;;23.20;53.50;;;;;;4964388;28;20466;-94
2021/09/19 12:02:12;;;;;;;10.60;8.17;;;23.20;53.50;;;;;;4964936;28;20442;-95
2021/09/19 12:05:29;;;;;;;9.47;7.80;;;23.10;54.70;;;;;;4973933;28;20447;-94
2021/09/19 12:07:59;;;;;;;8.13;7.20;;;23.20;53.20;;;;;;4923223;29;20447;-95
2021/09/19 12:10:29;;;;;;;9.53;7.50;;;23.40;52.40;;;;;;4969132;28;20487;-94
2021/09/19 12:13:23;;;;;;;8.10;7.03;;;23.50;52.20;;;;;;4969324;28;20456;-95
2021/09/19 12:16:35;;;;;;;10.90;5.63;;;23.70;52.20;;;;;;4975162;28;20432;-94
2021/09/19 12:19:33;;;;;;;7.23;5.83;;;23.80;52.50;;;;;;4968064;28;20555;-95
2021/09/19 12:22:41;;;;;;;6.40;5.73;;;23.90;50.30;;;;;;4970989;29;20435;-95
2021/09/19 12:25:08;;;;;;;7.93;6.90;;;23.90;49.60;;;;;;4957352;28;20448;-95
2021/09/19 12:29:03;;;;;;;8.70;7.47;;;23.70;49.40;;;;;;4967237;29;20422;-95
2021/09/19 12:37:42;;;;;;;6.17;4.90;;;23.80;51.10;;;;;;4971585;26;20584;-94
2021/09/19 12:40:38;;;;;;;6.47;5.87;;;23.70;52.60;;;;;;4970271;28;20494;-94